Azuqueca de Henares, Spain
Current Conditions -  °F | °C
As of 11:00 AM on Tuesday 21 Oct 2014 (Local Time) from LETO Reporting Station
Clear Clear  
Wind Chill: 16°   Ceiling: Unl
Heat Index: 16°   Visibility: 6mi
Dew Point: 11°   Wind: 0mph
Humidity: 72%   Direction: NA
Pressure: 30.36"   Gusts: NA
Location:  40.57°N, 3.26°W
Report Text: LETO 210900Z 00000KT CAVOK 16/11 Q1028 NOSIG
Loading
Personal Weather Stations






























Interactive Weather Map
Tropical Storm Tracking
New forecast layout! Learn more

10-Day Weather Forecast

Advertisements
Track Severe Weather on mobile